Time;durP1;ratioP1;P1;durP2;ratioP2;P2;SDS_P1;SDS_P2;PMS_P1;PMS_P2;Temp;Humidity;BMP_temperature;BMP_pressure;BME280_temperature;BME280_humidity;BME280_pressure;Samples;Min_cycle;Max_cycle;Signal;HPM_P1;HPM_P2
2022/04/19 00:03:02;;;;;;;7.10;6.40;;;22.20;64.20;;;;;;6220022;28;84079;-67
2022/04/19 00:06:06;;;;;;;7.20;6.50;;;22.20;64.20;;;;;;6213143;28;84344;-67
2022/04/19 00:09:07;;;;;;;7.13;6.47;;;22.20;64.20;;;;;;6225934;28;83927;-68
2022/04/19 00:12:10;;;;;;;7.55;6.80;;;22.20;64.10;;;;;;6210622;28;84033;-67
2022/04/19 00:15:12;;;;;;;6.70;6.10;;;22.20;64.20;;;;;;6226060;28;83945;-67
2022/04/19 00:21:36;;;;;;;7.07;6.38;;;22.20;64.20;;;;;;6225590;28;82200;-67
2022/04/19 00:24:38;;;;;;;7.30;6.28;;;22.10;64.20;;;;;;6229927;28;83260;-67
2022/04/19 00:27:40;;;;;;;6.88;6.28;;;22.20;64.30;;;;;;6231250;28;84022;-67
2022/04/19 00:30:43;;;;;;;6.78;6.18;;;22.10;64.20;;;;;;6229669;28;83611;-68
2022/04/19 00:33:45;;;;;;;6.72;6.10;;;22.20;64.30;;;;;;6227328;28;84050;-68
2022/04/19 00:36:48;;;;;;;6.40;5.80;;;22.10;64.20;;;;;;6228615;28;83996;-67
2022/04/19 00:39:50;;;;;;;7.05;6.40;;;22.10;64.20;;;;;;6223942;28;85017;-68
2022/04/19 00:42:54;;;;;;;7.53;6.80;;;22.10;64.30;;;;;;6220836;28;83463;-67
2022/04/19 00:45:56;;;;;;;7.03;6.28;;;22.10;64.40;;;;;;6211997;28;84179;-67
2022/04/19 00:48:58;;;;;;;6.57;5.90;;;22.10;64.40;;;;;;6224818;28;84040;-67
2022/04/19 00:52:02;;;;;;;6.88;6.28;;;22.10;64.40;;;;;;6228346;28;84124;-68
2022/04/19 00:55:07;;;;;;;6.68;6.07;;;22.10;64.40;;;;;;6236892;28;82933;-68
2022/04/19 00:58:09;;;;;;;6.88;6.18;;;22.20;64.50;;;;;;6237589;28;84158;-68
2022/04/19 01:01:11;;;;;;;6.60;6.00;;;22.10;64.40;;;;;;6223546;28;83577;-68
2022/04/19 01:04:13;;;;;;;6.78;6.10;;;22.10;64.40;;;;;;6228411;28;84329;-67
2022/04/19 01:07:18;;;;;;;6.50;5.90;;;22.10;64.40;;;;;;6232656;28;84071;-67
2022/04/19 01:10:20;;;;;;;6.55;5.95;;;22.10;64.50;;;;;;6226070;28;85004;-67
2022/04/19 01:13:22;;;;;;;6.15;5.65;;;22.10;64.50;;;;;;6234074;28;82750;-68
2022/04/19 01:16:24;;;;;;;6.10;5.50;;;22.10;64.50;;;;;;6222564;28;84034;-67
2022/04/19 01:19:27;;;;;;;5.97;5.38;;;22.10;64.50;;;;;;6219972;28;84002;-68
2022/04/19 01:22:52;;;;;;;6.07;5.47;;;22.10;64.60;;;;;;6226948;28;83942;-67
2022/04/19 01:25:54;;;;;;;6.47;5.88;;;22.10;64.70;;;;;;6211483;28;83442;-68
2022/04/19 01:28:56;;;;;;;6.20;5.60;;;22.20;64.70;;;;;;6230996;28;84236;-68
2022/04/19 01:31:59;;;;;;;6.10;5.50;;;22.10;64.70;;;;;;6228981;28;83300;-68
2022/04/19 01:35:09;;;;;;;6.38;5.78;;;22.10;64.70;;;;;;6224694;28;84049;-68
2022/04/19 01:38:12;;;;;;;6.10;5.50;;;22.10;64.70;;;;;;6227618;28;84932;-68
2022/04/19 01:41:14;;;;;;;6.30;5.70;;;22.10;64.70;;;;;;6221673;28;84994;-68
2022/04/19 01:44:17;;;;;;;6.38;5.78;;;22.10;64.70;;;;;;6231084;28;83987;-68
2022/04/19 01:47:19;;;;;;;6.07;5.47;;;22.10;64.70;;;;;;6220622;28;84333;-68
2022/04/19 01:50:22;;;;;;;5.75;5.15;;;22.10;64.70;;;;;;6233966;28;82753;-68
2022/04/19 01:53:27;;;;;;;6.20;5.60;;;22.10;64.70;;;;;;6228794;28;84350;-68
2022/04/19 01:56:29;;;;;;;6.28;5.68;;;22.10;64.70;;;;;;6229309;28;81973;-67
2022/04/19 01:59:31;;;;;;;6.22;5.63;;;22.10;64.70;;;;;;6215280;28;84052;-68
2022/04/19 02:02:33;;;;;;;5.93;5.38;;;22.10;64.70;;;;;;6224197;28;83334;-66
2022/04/19 02:05:35;;;;;;;5.88;5.28;;;22.00;64.70;;;;;;6222338;28;84125;-68
2022/04/19 02:08:38;;;;;;;5.65;4.95;;;22.00;64.70;;;;;;6222188;28;83461;-69
2022/04/19 02:11:40;;;;;;;5.50;5.00;;;22.00;64.70;;;;;;6233471;28;83799;-68
2022/04/19 02:14:42;;;;;;;5.20;4.70;;;22.00;64.70;;;;;;6221812;28;84056;-68
2022/04/19 02:17:45;;;;;;;5.82;5.32;;;22.00;64.70;;;;;;6221306;28;84049;-69
2022/04/19 02:24:08;;;;;;;5.47;4.97;;;22.00;64.80;;;;;;6233555;28;82787;-68
2022/04/19 02:27:10;;;;;;;5.07;4.57;;;22.00;64.80;;;;;;6226843;28;83282;-68
2022/04/19 02:30:15;;;;;;;5.43;4.93;;;22.00;64.80;;;;;;6212556;28;83456;-68
2022/04/19 02:33:17;;;;;;;5.40;4.90;;;22.00;64.70;;;;;;6216411;28;83828;-68
2022/04/19 02:36:19;;;;;;;5.63;5.13;;;22.00;64.80;;;;;;6231766;28;82968;-69
2022/04/19 02:39:22;;;;;;;5.30;4.80;;;22.00;64.80;;;;;;6234959;28;83120;-69
2022/04/19 02:42:24;;;;;;;5.15;4.75;;;22.00;64.70;;;;;;6230974;28;83852;-69
2022/04/19 02:45:26;;;;;;;5.50;5.00;;;22.00;64.80;;;;;;6231903;28;84382;-68
2022/04/19 02:48:47;;;;;;;4.95;4.47;;;22.00;64.80;;;;;;6221262;28;84153;-69
2022/04/19 02:51:48;;;;;;;5.40;4.90;;;22.00;64.90;;;;;;6217954;28;84085;-69
2022/04/19 02:54:52;;;;;;;4.95;4.55;;;22.00;64.80;;;;;;6210528;28;82749;-68
2022/04/19 02:57:54;;;;;;;5.00;4.50;;;22.00;64.90;;;;;;6232533;28;84147;-69
2022/04/19 03:00:56;;;;;;;5.22;4.72;;;22.00;64.90;;;;;;6234457;28;82946;-68
2022/04/19 03:03:58;;;;;;;4.70;4.30;;;22.00;64.90;;;;;;6224166;28;83569;-68
2022/04/19 03:07:01;;;;;;;4.90;4.40;;;22.00;64.90;;;;;;6217930;28;83623;-69
2022/04/19 03:10:04;;;;;;;5.07;4.68;;;22.00;64.90;;;;;;6231716;28;84057;-68
2022/04/19 03:13:06;;;;;;;5.13;4.63;;;21.90;64.70;;;;;;6232399;28;85572;-68
2022/04/19 03:16:13;;;;;;;4.68;4.28;;;22.00;64.80;;;;;;6232931;28;84027;-68
2022/04/19 03:19:15;;;;;;;4.80;4.40;;;22.00;64.70;;;;;;6233267;28;82894;-69
2022/04/19 03:22:17;;;;;;;4.50;4.10;;;22.00;64.70;;;;;;6223784;28;84255;-67
2022/04/19 03:28:40;;;;;;;4.72;4.32;;;22.00;64.70;;;;;;6218842;28;82146;-68
2022/04/19 03:31:42;;;;;;;4.50;4.10;;;22.00;64.70;;;;;;6230898;28;83981;-69
2022/04/19 03:34:45;;;;;;;4.50;4.10;;;21.90;64.70;;;;;;6235337;28;83436;-67
2022/04/19 03:37:47;;;;;;;4.43;4.03;;;22.00;64.70;;;;;;6218960;28;84399;-68
2022/04/19 03:40:50;;;;;;;4.70;4.30;;;22.00;64.70;;;;;;6208986;28;84032;-68
2022/04/19 03:43:53;;;;;;;4.50;4.10;;;22.00;64.70;;;;;;6219521;28;85197;-68
2022/04/19 03:47:09;;;;;;;4.50;4.10;;;21.90;64.60;;;;;;6217543;28;84047;-68
2022/04/19 03:50:11;;;;;;;4.55;4.15;;;22.00;64.70;;;;;;6211021;28;84424;-68
2022/04/19 03:53:13;;;;;;;4.47;4.07;;;22.00;64.70;;;;;;6214387;28;83985;-68
2022/04/19 03:56:17;;;;;;;3.90;3.60;;;22.00;64.70;;;;;;6236106;28;83015;-68
2022/04/19 03:59:19;;;;;;;3.78;3.47;;;22.00;64.70;;;;;;6224833;28;84047;-69
2022/04/19 04:02:21;;;;;;;4.05;3.75;;;22.00;64.70;;;;;;6212480;28;83657;-68
2022/04/19 04:05:24;;;;;;;4.10;3.70;;;22.00;64.70;;;;;;6213113;28;82200;-69
2022/04/19 04:08:26;;;;;;;4.07;3.67;;;22.00;64.70;;;;;;6220319;28;82967;-69
2022/04/19 04:11:30;;;;;;;4.18;3.78;;;22.00;64.70;;;;;;6231756;28;84388;-68
2022/04/19 04:14:32;;;;;;;3.70;3.40;;;22.00;64.70;;;;;;6227975;28;85196;-67
2022/04/19 04:17:34;;;;;;;3.70;3.40;;;22.00;64.70;;;;;;6235652;28;83338;-69
2022/04/19 04:20:37;;;;;;;4.10;3.80;;;22.00;64.60;;;;;;6234143;28;83323;-68
2022/04/19 04:23:38;;;;;;;3.70;3.40;;;22.00;64.50;;;;;;6226658;28;82930;-69
2022/04/19 04:26:42;;;;;;;3.70;3.40;;;22.00;64.50;;;;;;6234333;28;84075;-69
2022/04/19 04:29:44;;;;;;;3.90;3.50;;;22.10;64.60;;;;;;6232537;28;84012;-67
2022/04/19 04:32:46;;;;;;;3.63;3.33;;;22.00;64.50;;;;;;6231694;28;84231;-68
2022/04/19 04:35:48;;;;;;;3.83;3.53;;;22.00;64.50;;;;;;6231508;28;83660;-68
2022/04/19 04:38:50;;;;;;;3.47;3.17;;;22.10;64.60;;;;;;6234312;28;84059;-67
2022/04/19 04:41:54;;;;;;;3.42;3.13;;;22.00;64.50;;;;;;6223847;28;84066;-68
2022/04/19 04:44:55;;;;;;;3.70;3.40;;;22.00;64.50;;;;;;6226346;28;83678;-68
2022/04/19 04:51:17;;;;;;;4.25;3.85;;;22.10;64.70;;;;;;6214882;28;82522;-67
2022/04/19 04:54:19;;;;;;;3.63;3.33;;;22.00;64.60;;;;;;6232206;28;84253;-68
2022/04/19 04:57:23;;;;;;;3.40;2.90;;;22.10;64.90;;;;;;6230049;28;84371;-69
2022/04/19 05:00:26;;;;;;;3.63;3.30;;;22.00;65.70;;;;;;6221233;28;84259;-69
2022/04/19 05:03:28;;;;;;;3.03;2.80;;;22.10;65.80;;;;;;6222657;28;84054;-69
2022/04/19 05:06:30;;;;;;;3.92;3.53;;;22.10;65.70;;;;;;6221835;28;82427;-69
2022/04/19 05:09:32;;;;;;;3.40;3.10;;;22.00;65.40;;;;;;6236706;28;84446;-69
2022/04/19 05:12:35;;;;;;;3.53;3.22;;;22.00;65.30;;;;;;6234475;28;84444;-68
2022/04/19 05:15:37;;;;;;;3.20;2.90;;;22.10;65.40;;;;;;6229853;28;85149;-69
2022/04/19 05:18:39;;;;;;;3.20;2.90;;;22.00;65.20;;;;;;6234396;28;84091;-69
2022/04/19 05:21:42;;;;;;;3.40;3.10;;;22.10;65.40;;;;;;6228212;28;84009;-69
2022/04/19 05:24:44;;;;;;;3.38;3.08;;;22.00;65.30;;;;;;6223554;28;84045;-68
2022/04/19 05:27:47;;;;;;;2.95;2.75;;;22.10;65.30;;;;;;6214309;28;82987;-68
2022/04/19 05:30:49;;;;;;;3.40;3.10;;;22.10;65.40;;;;;;6217178;28;84012;-69
2022/04/19 05:33:52;;;;;;;3.20;2.90;;;22.10;65.40;;;;;;6217463;28;84034;-68
2022/04/19 05:36:55;;;;;;;2.90;2.70;;;22.10;65.50;;;;;;6220422;28;82708;-68
2022/04/19 05:39:59;;;;;;;3.00;2.80;;;22.10;65.50;;;;;;6229101;28;82745;-68
2022/04/19 05:43:03;;;;;;;3.03;2.70;;;22.10;65.50;;;;;;6223080;28;85805;-69
2022/04/19 05:46:05;;;;;;;3.13;2.83;;;22.10;65.50;;;;;;6233102;28;83794;-68
2022/04/19 05:49:07;;;;;;;2.80;2.60;;;22.10;65.50;;;;;;6220491;28;82878;-69
2022/04/19 05:52:09;;;;;;;3.05;2.75;;;22.10;65.40;;;;;;6223614;28;84103;-68
2022/04/19 05:55:11;;;;;;;3.15;2.85;;;22.10;65.50;;;;;;6221634;28;84028;-69
2022/04/19 05:58:15;;;;;;;2.83;2.63;;;22.10;65.60;;;;;;6218542;28;82579;-69
2022/04/19 06:01:18;;;;;;;2.90;2.70;;;22.10;65.60;;;;;;6234119;28;84011;-68
2022/04/19 06:07:44;;;;;;;2.72;2.53;;;22.00;65.50;;;;;;6215606;28;81735;-69
2022/04/19 06:10:48;;;;;;;3.10;2.80;;;22.00;65.60;;;;;;6214141;28;84493;-68
2022/04/19 06:13:51;;;;;;;2.88;2.67;;;22.10;65.80;;;;;;6234168;28;83999;-69
2022/04/19 06:16:53;;;;;;;3.00;2.80;;;22.00;65.80;;;;;;6229624;28;85128;-68
2022/04/19 06:19:55;;;;;;;2.90;2.60;;;22.10;65.90;;;;;;6228692;28;82769;-69
2022/04/19 06:22:57;;;;;;;2.92;2.60;;;22.00;65.80;;;;;;6230664;28;82966;-69
2022/04/19 06:25:59;;;;;;;3.45;3.10;;;22.00;65.80;;;;;;6233198;28;84110;-69
2022/04/19 06:29:03;;;;;;;2.88;2.58;;;22.00;65.90;;;;;;6218968;28;84051;-68
2022/04/19 06:32:06;;;;;;;4.07;3.00;;;22.00;65.90;;;;;;6232125;28;82927;-69
2022/04/19 06:35:08;;;;;;;2.78;2.58;;;22.00;65.90;;;;;;6222505;28;84103;-69
2022/04/19 06:38:11;;;;;;;3.05;2.75;;;22.00;65.90;;;;;;6234148;28;82222;-69
2022/04/19 06:41:13;;;;;;;2.70;2.50;;;22.00;65.90;;;;;;6212919;28;82798;-69
2022/04/19 06:44:16;;;;;;;2.78;2.58;;;22.00;65.80;;;;;;6229483;28;81949;-68
2022/04/19 06:47:18;;;;;;;2.72;2.53;;;22.00;65.80;;;;;;6232008;28;85467;-68
2022/04/19 06:50:23;;;;;;;3.58;2.75;;;22.00;65.80;;;;;;6234928;28;82817;-68
2022/04/19 06:53:29;;;;;;;2.80;2.58;;;22.00;65.80;;;;;;6234571;28;84036;-69
2022/04/19 06:56:31;;;;;;;2.78;2.47;;;22.00;65.80;;;;;;6224929;28;84010;-68
2022/04/19 06:59:35;;;;;;;2.92;2.53;;;22.00;65.70;;;;;;6228753;28;84025;-69
2022/04/19 07:02:37;;;;;;;2.80;2.53;;;22.00;65.70;;;;;;6232353;28;84031;-68
2022/04/19 07:05:39;;;;;;;2.70;2.50;;;22.00;65.70;;;;;;6218271;28;82903;-68
2022/04/19 07:08:41;;;;;;;2.78;2.50;;;22.00;65.60;;;;;;6210303;28;81806;-68
2022/04/19 07:11:43;;;;;;;2.40;2.20;;;22.00;65.60;;;;;;6220658;28;84169;-69
2022/04/19 07:14:46;;;;;;;2.40;2.20;;;22.00;65.60;;;;;;6219970;28;84384;-68
2022/04/19 07:17:48;;;;;;;2.70;2.20;;;22.00;65.60;;;;;;6209445;28;84967;-68
2022/04/19 07:27:33;;;;;;;2.40;2.20;;;22.00;65.50;;;;;;6231075;28;82287;-68
2022/04/19 07:30:36;;;;;;;2.35;2.15;;;22.00;65.50;;;;;;6230727;28;83726;-69
2022/04/19 07:33:39;;;;;;;2.55;2.30;;;22.00;65.50;;;;;;6237780;28;82390;-69
2022/04/19 07:36:42;;;;;;;2.50;2.30;;;22.00;65.50;;;;;;6237355;28;84101;-69
2022/04/19 07:39:44;;;;;;;2.50;2.30;;;22.00;65.50;;;;;;6225643;28;83273;-69
2022/04/19 07:42:46;;;;;;;2.58;2.35;;;22.00;65.50;;;;;;6236074;28;84252;-69
2022/04/19 07:45:49;;;;;;;2.55;2.35;;;22.00;65.50;;;;;;6226120;28;82178;-68
2022/04/19 07:48:51;;;;;;;2.50;2.30;;;22.00;65.50;;;;;;6235910;28;83800;-69
2022/04/19 07:51:54;;;;;;;2.40;2.20;;;22.00;65.50;;;;;;6223830;28;84109;-69
2022/04/19 07:54:56;;;;;;;2.47;2.28;;;22.00;65.50;;;;;;6216898;28;81920;-68
2022/04/19 07:57:58;;;;;;;2.33;2.13;;;22.00;65.50;;;;;;6225413;28;84004;-68
2022/04/19 08:01:02;;;;;;;2.40;2.20;;;22.00;65.50;;;;;;6231278;28;84422;-68
2022/04/19 08:04:04;;;;;;;2.30;2.10;;;22.00;65.50;;;;;;6214074;28;84103;-69
2022/04/19 08:07:06;;;;;;;2.97;2.40;;;22.00;65.50;;;;;;6236393;28;84380;-69
2022/04/19 08:10:09;;;;;;;2.33;2.13;;;22.00;65.50;;;;;;6237158;28;82190;-69
2022/04/19 08:13:11;;;;;;;2.20;2.00;;;22.00;65.50;;;;;;6236624;28;84369;-68
2022/04/19 08:16:14;;;;;;;2.67;2.47;;;22.00;65.50;;;;;;6225910;28;84732;-68
2022/04/19 08:19:16;;;;;;;2.30;2.10;;;22.00;65.50;;;;;;6223529;28;84996;-69
2022/04/19 08:22:18;;;;;;;2.40;2.20;;;22.00;65.50;;;;;;6220955;28;83059;-69
2022/04/19 08:25:20;;;;;;;2.55;2.35;;;22.00;65.50;;;;;;6235016;28;84339;-69
2022/04/19 08:28:22;;;;;;;2.47;2.20;;;22.00;65.40;;;;;;6222690;28;84024;-68
2022/04/19 08:31:26;;;;;;;2.47;2.08;;;22.00;65.50;;;;;;6223870;28;82946;-69
2022/04/19 08:34:28;;;;;;;2.38;2.17;;;22.00;65.50;;;;;;6221917;28;82680;-69
2022/04/19 08:37:31;;;;;;;2.22;2.03;;;22.00;65.50;;;;;;6213943;28;84096;-68
2022/04/19 08:40:34;;;;;;;2.28;2.08;;;22.00;65.50;;;;;;6210750;28;83236;-68
2022/04/19 08:43:38;;;;;;;2.28;2.08;;;22.00;65.50;;;;;;6232250;28;82727;-69
2022/04/19 08:46:41;;;;;;;2.30;2.10;;;22.00;65.60;;;;;;6229739;28;84012;-69
2022/04/19 08:49:44;;;;;;;2.40;2.20;;;22.00;65.60;;;;;;6213990;28;84987;-69
2022/04/19 08:52:47;;;;;;;2.30;2.10;;;22.00;65.60;;;;;;6235843;28;84128;-68
2022/04/19 08:59:09;;;;;;;2.22;2.03;;;22.00;65.50;;;;;;6231714;28;84987;-69
2022/04/19 09:02:22;;;;;;;2.20;2.00;;;22.00;65.60;;;;;;6225827;28;84120;-69
2022/04/19 09:05:26;;;;;;;2.22;2.03;;;22.00;65.50;;;;;;6234622;28;84015;-69
2022/04/19 09:08:28;;;;;;;1.90;1.80;;;22.00;65.50;;;;;;6221954;28;82963;-69
2022/04/19 09:11:35;;;;;;;2.30;2.10;;;22.00;65.60;;;;;;6212866;28;83162;-69
2022/04/19 09:14:37;;;;;;;2.20;2.00;;;22.00;65.60;;;;;;6217744;28;83917;-69
2022/04/19 09:17:41;;;;;;;2.30;2.05;;;22.00;65.60;;;;;;6235132;28;82835;-68
2022/04/19 09:20:49;;;;;;;2.22;2.03;;;22.00;65.70;;;;;;6235117;28;85007;-69
2022/04/19 09:23:53;;;;;;;2.20;2.00;;;22.00;65.70;;;;;;6215811;28;82772;-68
2022/04/19 09:26:55;;;;;;;2.10;1.90;;;22.00;65.70;;;;;;6228006;28;83895;-68
2022/04/19 09:30:22;;;;;;;2.33;2.05;;;22.00;65.70;;;;;;6237211;28;83305;-69
2022/04/19 09:33:27;;;;;;;2.20;2.00;;;22.00;65.70;;;;;;6210813;28;84083;-69
2022/04/19 09:36:29;;;;;;;2.17;1.95;;;22.00;65.70;;;;;;6222967;28;82978;-68
2022/04/19 09:39:32;;;;;;;2.20;2.00;;;22.00;65.80;;;;;;6210249;28;84399;-69
2022/04/19 09:42:37;;;;;;;2.35;2.15;;;22.00;65.80;;;;;;6223105;28;84292;-69
2022/04/19 09:45:56;;;;;;;2.30;2.10;;;22.00;65.80;;;;;;6220418;28;84038;-68
2022/04/19 09:48:59;;;;;;;2.28;2.08;;;22.00;65.80;;;;;;6224513;28;82777;-68
2022/04/19 09:52:01;;;;;;;2.42;2.10;;;22.00;65.80;;;;;;6229239;28;84912;-68
2022/04/19 09:55:05;;;;;;;2.25;2.05;;;22.00;65.80;;;;;;6235992;28;82767;-67
2022/04/19 09:58:07;;;;;;;2.70;2.05;;;22.00;65.80;;;;;;6213041;28;84062;-68
2022/04/19 10:08:10;;;;;;;2.25;2.05;;;22.00;65.80;;;;;;6210483;28;84087;-68
2022/04/19 10:11:17;;;;;;;2.20;2.00;;;22.00;65.90;;;;;;6211935;28;82283;-68
2022/04/19 10:14:19;;;;;;;2.00;1.80;;;22.00;65.90;;;;;;6232708;28;83661;-68
2022/04/19 10:17:22;;;;;;;2.00;1.88;;;21.90;65.90;;;;;;6213732;28;82883;-68
2022/04/19 10:20:31;;;;;;;2.10;1.90;;;21.90;66.00;;;;;;6228102;28;84086;-68
2022/04/19 10:23:35;;;;;;;2.25;2.05;;;21.90;66.00;;;;;;6228759;28;84967;-67
2022/04/19 10:26:46;;;;;;;2.50;2.17;;;22.00;66.20;;;;;;6222085;28;84575;-68
2022/04/19 10:29:52;;;;;;;2.20;2.00;;;21.90;66.10;;;;;;6221925;28;82992;-68
2022/04/19 10:32:55;;;;;;;2.13;1.88;;;21.90;66.10;;;;;;6224263;28;84193;-68
2022/04/19 10:36:24;;;;;;;1.90;1.80;;;21.90;66.10;;;;;;6231182;28;83922;-67
2022/04/19 10:39:30;;;;;;;2.20;2.00;;;21.90;66.10;;;;;;6199879;28;82884;-67
2022/04/19 10:42:33;;;;;;;2.38;2.17;;;21.90;66.20;;;;;;6222224;28;84353;-67
2022/04/19 10:45:37;;;;;;;2.15;1.95;;;21.90;66.10;;;;;;6233622;28;83337;-68
2022/04/19 10:49:17;;;;;;;2.30;2.10;;;21.90;66.10;;;;;;6235578;28;83962;-67
2022/04/19 10:52:49;;;;;;;2.28;2.00;;;21.90;66.10;;;;;;6233413;28;84074;-68
2022/04/19 10:56:05;;;;;;;2.00;1.80;;;21.90;66.10;;;;;;6218313;28;83887;-68
2022/04/19 10:59:22;;;;;;;2.40;2.20;;;21.90;66.10;;;;;;6228409;28;82926;-68
2022/04/19 11:02:43;;;;;;;2.25;1.80;;;21.90;66.10;;;;;;6231332;28;84002;-67
2022/04/19 11:05:46;;;;;;;2.10;1.90;;;21.90;66.10;;;;;;6229372;28;82932;-67
2022/04/19 11:09:06;;;;;;;2.35;2.05;;;21.90;66.20;;;;;;6239791;28;82972;-68
2022/04/19 11:12:12;;;;;;;2.08;1.60;;;21.90;66.20;;;;;;6212238;28;84129;-68
2022/04/19 11:15:15;;;;;;;2.00;1.90;;;21.90;66.20;;;;;;6223633;28;83848;-67
2022/04/19 11:18:23;;;;;;;2.10;1.90;;;21.90;66.20;;;;;;6236880;28;83015;-68
2022/04/19 11:21:54;;;;;;;2.33;2.13;;;21.90;66.20;;;;;;6236273;28;84332;-67
2022/04/19 11:25:07;;;;;;;1.90;1.80;;;21.90;66.20;;;;;;6223071;28;84094;-68
2022/04/19 11:28:24;;;;;;;2.28;1.90;;;21.90;66.20;;;;;;6235795;28;83667;-67
2022/04/19 11:31:26;;;;;;;1.80;1.70;;;21.90;66.10;;;;;;6224090;28;82910;-68
2022/04/19 11:34:28;;;;;;;2.10;1.90;;;21.90;66.20;;;;;;6227168;28;84860;-68
2022/04/19 11:37:31;;;;;;;2.20;2.00;;;21.90;66.10;;;;;;6212840;28;84634;-68
2022/04/19 11:47:21;;;;;;;1.90;1.70;;;21.90;66.20;;;;;;6224109;28;82282;-68
2022/04/19 11:50:29;;;;;;;2.03;1.88;;;21.90;66.20;;;;;;6226927;28;83594;-67
2022/04/19 11:53:31;;;;;;;1.92;1.83;;;21.90;66.20;;;;;;6211693;28;82082;-68
2022/04/19 11:59:54;;;;;;;1.92;1.83;;;21.90;66.10;;;;;;6236543;28;83396;-68
2022/04/19 12:02:57;;;;;;;1.80;1.70;;;21.90;66.10;;;;;;6230116;28;82812;-68
2022/04/19 12:06:19;;;;;;;2.10;1.90;;;21.90;66.10;;;;;;6224741;28;84195;-67
2022/04/19 12:09:22;;;;;;;1.83;1.73;;;21.90;66.10;;;;;;6232163;28;84014;-67
2022/04/19 12:12:25;;;;;;;2.00;1.80;;;21.90;66.10;;;;;;6221496;28;84039;-68
2022/04/19 12:15:38;;;;;;;1.80;1.70;;;21.90;66.10;;;;;;6219278;28;83931;-67
2022/04/19 12:18:40;;;;;;;2.03;1.83;;;21.90;67.10;;;;;;6211801;28;84424;-68
2022/04/19 12:21:45;;;;;;;2.03;1.83;;;21.90;66.10;;;;;;6228223;28;81357;-68
2022/04/19 12:24:49;;;;;;;1.65;1.55;;;21.90;66.10;;;;;;6219773;28;83922;-68
2022/04/19 12:27:54;;;;;;;2.00;1.90;;;21.90;66.10;;;;;;6223572;28;84294;-68
2022/04/19 12:30:56;;;;;;;1.90;1.80;;;21.90;66.20;;;;;;6211621;28;83947;-68
2022/04/19 12:33:58;;;;;;;2.00;1.80;;;21.90;66.10;;;;;;6219511;28;84061;-67
2022/04/19 12:37:06;;;;;;;1.80;1.70;;;21.90;66.10;;;;;;6234525;28;83300;-67
2022/04/19 12:40:09;;;;;;;2.00;1.90;;;21.90;66.10;;;;;;6220385;28;82303;-68
2022/04/19 12:43:15;;;;;;;2.03;1.90;;;21.90;66.10;;;;;;6211425;28;84087;-67
2022/04/19 12:46:22;;;;;;;2.20;2.00;;;21.80;66.10;;;;;;6211497;28;83902;-68
2022/04/19 12:49:25;;;;;;;2.10;1.90;;;21.90;66.10;;;;;;6225233;28;83883;-68
2022/04/19 12:52:32;;;;;;;1.90;1.80;;;21.90;66.10;;;;;;6234728;28;83166;-68
2022/04/19 12:55:34;;;;;;;2.00;1.80;;;21.90;66.10;;;;;;6223982;28;83263;-68
2022/04/19 12:58:44;;;;;;;1.90;1.70;;;21.90;66.10;;;;;;6234010;28;84099;-68
2022/04/19 13:01:46;;;;;;;1.73;1.63;;;21.90;66.10;;;;;;6230259;28;83884;-68
2022/04/19 13:04:49;;;;;;;1.88;1.77;;;21.90;66.10;;;;;;6222298;28;84002;-68
2022/04/19 13:14:31;;;;;;;1.80;1.70;;;21.90;66.00;;;;;;6234605;28;82250;-68
2022/04/19 13:17:34;;;;;;;1.60;1.50;;;21.90;66.10;;;;;;6236134;28;84026;-67
2022/04/19 13:20:36;;;;;;;2.03;1.90;;;21.90;66.10;;;;;;6222467;28;83998;-68
2022/04/19 13:23:38;;;;;;;1.90;1.80;;;21.80;66.10;;;;;;6227735;28;82215;-68
2022/04/19 13:26:40;;;;;;;1.80;1.70;;;21.90;66.20;;;;;;6224266;28;84291;-68
2022/04/19 13:29:44;;;;;;;2.17;1.98;;;21.80;66.10;;;;;;6222804;28;84606;-68
2022/04/19 13:32:46;;;;;;;1.85;1.70;;;21.90;66.20;;;;;;6210238;28;85003;-69
2022/04/19 13:35:48;;;;;;;1.70;1.60;;;21.90;66.20;;;;;;6230886;28;84311;-68
2022/04/19 13:38:50;;;;;;;1.75;1.65;;;21.80;66.20;;;;;;6234417;28;84178;-68
2022/04/19 13:41:52;;;;;;;1.70;1.60;;;21.80;66.10;;;;;;6225901;28;83018;-68
2022/04/19 13:44:55;;;;;;;1.60;1.50;;;21.90;66.20;;;;;;6210033;28;84265;-68
2022/04/19 13:47:58;;;;;;;1.85;1.73;;;21.90;66.20;;;;;;6224732;28;83891;-68
2022/04/19 13:51:00;;;;;;;2.00;1.80;;;21.90;66.20;;;;;;6224614;28;84048;-69
2022/04/19 13:54:03;;;;;;;2.05;1.85;;;21.90;66.20;;;;;;6234905;28;83333;-68
2022/04/19 13:57:05;;;;;;;1.67;1.58;;;21.80;66.10;;;;;;6232255;28;84029;-68
2022/04/19 14:00:10;;;;;;;2.00;1.80;;;21.90;66.10;;;;;;6234706;28;82951;-68
2022/04/19 14:03:13;;;;;;;1.83;1.73;;;21.80;66.10;;;;;;6233527;28;85173;-68
2022/04/19 14:06:15;;;;;;;2.00;1.80;;;21.90;66.20;;;;;;6226099;28;84032;-68
2022/04/19 14:09:17;;;;;;;1.80;1.70;;;21.80;66.20;;;;;;6229308;28;84057;-69
2022/04/19 14:12:20;;;;;;;1.70;1.60;;;21.80;66.20;;;;;;6233563;28;84003;-68
2022/04/19 14:15:24;;;;;;;2.40;1.83;;;21.80;66.10;;;;;;6235208;28;84046;-69
2022/04/19 14:18:26;;;;;;;1.85;1.70;;;21.90;66.20;;;;;;6219600;28;84025;-68
2022/04/19 14:21:28;;;;;;;1.60;1.50;;;21.80;66.20;;;;;;6233993;28;83351;-69
2022/04/19 14:24:30;;;;;;;1.80;1.70;;;21.90;66.20;;;;;;6222497;28;82008;-69
2022/04/19 14:27:32;;;;;;;2.33;1.80;;;21.90;66.20;;;;;;6224109;28;84070;-68
2022/04/19 14:33:55;;;;;;;1.90;1.80;;;21.80;66.10;;;;;;6220657;28;83120;-69
2022/04/19 14:36:58;;;;;;;1.80;1.70;;;21.80;66.20;;;;;;6229999;28;83881;-69
2022/04/19 14:40:00;;;;;;;1.85;1.75;;;21.90;66.20;;;;;;6213931;28;82870;-68
2022/04/19 14:43:02;;;;;;;2.15;1.70;;;21.80;66.10;;;;;;6220107;28;84137;-69
2022/04/19 14:46:05;;;;;;;1.90;1.80;;;21.80;66.10;;;;;;6232287;28;83988;-69
2022/04/19 14:49:07;;;;;;;1.80;1.67;;;21.90;66.20;;;;;;6222181;28;84696;-69
2022/04/19 14:52:16;;;;;;;1.65;1.55;;;21.80;66.10;;;;;;6222095;28;83922;-69
2022/04/19 14:55:18;;;;;;;1.75;1.60;;;21.90;66.10;;;;;;6209666;28;83600;-69
2022/04/19 14:58:20;;;;;;;1.70;1.60;;;21.80;66.10;;;;;;6230660;28;83940;-69
2022/04/19 15:01:23;;;;;;;2.00;1.80;;;21.80;66.10;;;;;;6221020;28;82964;-69
2022/04/19 15:04:25;;;;;;;1.85;1.75;;;21.80;66.10;;;;;;6228653;28;85166;-69
2022/04/19 15:07:27;;;;;;;1.77;1.67;;;21.90;66.20;;;;;;6231494;28;84259;-69
2022/04/19 15:10:30;;;;;;;2.08;1.75;;;21.80;66.20;;;;;;6231402;28;84251;-68
2022/04/19 15:13:32;;;;;;;1.80;1.70;;;21.80;66.20;;;;;;6228984;28;84022;-68
2022/04/19 15:16:35;;;;;;;1.98;1.80;;;21.90;66.30;;;;;;6230557;28;84089;-68
2022/04/19 15:19:37;;;;;;;1.60;1.50;;;21.80;66.20;;;;;;6209081;28;82872;-69
2022/04/19 15:22:39;;;;;;;1.67;1.58;;;21.80;66.20;;;;;;6231987;28;83792;-68
2022/04/19 15:25:41;;;;;;;1.77;1.60;;;21.80;66.30;;;;;;6218162;28;83254;-69
2022/04/19 15:28:43;;;;;;;1.80;1.70;;;21.80;66.30;;;;;;6227971;28;83837;-68
2022/04/19 15:31:48;;;;;;;1.77;1.67;;;21.80;66.20;;;;;;6210336;28;84019;-67
2022/04/19 15:34:50;;;;;;;1.73;1.63;;;21.80;66.30;;;;;;6219226;28;84277;-67
2022/04/19 15:37:52;;;;;;;2.00;1.60;;;21.80;66.20;;;;;;6208539;28;84158;-67
2022/04/19 15:40:54;;;;;;;1.70;1.60;;;21.80;66.30;;;;;;6207984;28;84103;-67
2022/04/19 15:43:56;;;;;;;1.98;1.77;;;21.80;66.20;;;;;;6208412;28;84044;-67
2022/04/19 15:47:01;;;;;;;1.70;1.60;;;21.90;66.30;;;;;;6213232;28;84241;-66
2022/04/19 15:50:04;;;;;;;1.65;1.55;;;21.80;66.20;;;;;;6213005;28;84373;-67
2022/04/19 15:53:06;;;;;;;2.00;1.55;;;21.80;66.20;;;;;;6235508;28;82916;-67
2022/04/19 15:56:08;;;;;;;2.25;1.58;;;21.80;66.30;;;;;;6225036;28;82176;-68
2022/04/19 15:59:10;;;;;;;4.57;2.17;;;21.80;66.40;;;;;;6227381;28;84009;-68
2022/04/19 16:02:14;;;;;;;3.35;2.00;;;21.80;66.80;;;;;;6224917;28;83255;-69
2022/04/19 16:05:16;;;;;;;2.13;1.90;;;21.80;66.60;;;;;;6219963;28;84960;-68
2022/04/19 16:08:18;;;;;;;4.25;1.80;;;21.80;66.50;;;;;;6225855;28;84035;-69
2022/04/19 16:11:20;;;;;;;3.20;1.50;;;21.90;66.50;;;;;;6227503;28;84030;-69
2022/04/19 16:14:23;;;;;;;2.22;1.50;;;21.90;66.40;;;;;;6223988;28;83786;-69
2022/04/19 16:24:06;;;;;;;2.10;1.90;;;22.00;66.10;;;;;;6233327;28;82312;-72
2022/04/19 16:27:08;;;;;;;2.13;1.70;;;22.10;66.10;;;;;;6233398;28;83258;-72
2022/04/19 16:30:11;;;;;;;3.38;1.90;;;22.10;66.40;;;;;;6219799;28;84095;-71
2022/04/19 16:33:15;;;;;;;1.77;1.63;;;22.10;65.40;;;;;;6220937;28;83799;-71
2022/04/19 16:36:17;;;;;;;1.85;1.75;;;22.10;65.30;;;;;;6232235;28;85139;-71
2022/04/19 16:39:19;;;;;;;2.08;1.88;;;22.10;65.40;;;;;;6221396;28;83924;-71
2022/04/19 16:42:22;;;;;;;2.03;1.83;;;22.20;65.00;;;;;;6226057;28;83503;-71
2022/04/19 16:45:24;;;;;;;2.20;2.00;;;22.20;64.30;;;;;;6217961;28;84000;-71
2022/04/19 16:48:28;;;;;;;2.15;1.95;;;22.20;63.50;;;;;;6218011;28;84374;-71
2022/04/19 16:51:30;;;;;;;2.10;1.90;;;22.20;62.30;;;;;;6215729;28;84137;-70
2022/04/19 16:54:34;;;;;;;1.95;1.70;;;22.20;61.60;;;;;;6221734;28;82936;-71
2022/04/19 16:57:36;;;;;;;2.10;1.90;;;22.20;61.40;;;;;;6221222;28;82602;-71
2022/04/19 17:00:38;;;;;;;2.20;2.00;;;22.20;60.70;;;;;;6225014;28;84345;-71